createdAt,value
2018-04-27T00:00:41.061Z,93273.94
2018-04-27T00:03:07.513Z,93273.48
2018-04-27T00:05:33.879Z,93270.75
2018-04-27T00:08:00.396Z,93276.15
2018-04-27T00:10:26.864Z,93274.66
2018-04-27T00:12:53.247Z,93271.95
2018-04-27T00:15:19.637Z,93268.67
2018-04-27T00:17:46.161Z,93263.79
2018-04-27T00:20:12.723Z,93269.27
2018-04-27T00:22:39.188Z,93271.41
2018-04-27T00:25:05.657Z,93273.22
2018-04-27T00:27:32.078Z,93278.00
2018-04-27T00:29:58.518Z,93282.73
2018-04-27T00:32:24.932Z,93291.52
2018-04-27T00:34:51.370Z,93291.05
2018-04-27T00:37:17.892Z,93293.69
2018-04-27T00:39:44.390Z,93294.33
2018-04-27T00:42:10.808Z,93295.34
2018-04-27T00:44:37.305Z,93289.16
2018-04-27T00:47:03.725Z,93294.05
2018-04-27T00:49:30.191Z,93289.86
2018-04-27T00:51:56.715Z,93282.48
2018-04-27T00:54:23.142Z,93282.00
2018-04-27T00:56:49.597Z,93280.13
2018-04-27T00:59:16.079Z,93284.38
2018-04-27T01:01:42.481Z,93276.30
2018-04-27T01:04:08.897Z,93278.09
2018-04-27T01:06:35.322Z,93281.85
2018-04-27T01:09:01.747Z,93281.47
2018-04-27T01:11:28.158Z,93285.64
2018-04-27T01:13:54.564Z,93284.80
2018-04-27T01:16:20.982Z,93290.69
2018-04-27T01:18:47.365Z,93295.35
2018-04-27T01:21:13.847Z,93296.81
2018-04-27T01:23:40.357Z,93301.69
2018-04-27T01:26:06.840Z,93311.67
2018-04-27T01:28:33.410Z,93316.48
2018-04-27T01:30:59.820Z,93309.77
2018-04-27T01:33:26.255Z,93303.69
2018-04-27T01:35:52.728Z,93305.69
2018-04-27T01:38:19.246Z,93302.61
2018-04-27T01:40:45.711Z,93299.28
2018-04-27T01:43:12.212Z,93291.33
2018-04-27T01:45:38.609Z,93297.00
2018-04-27T01:48:05.005Z,93293.84
2018-04-27T01:50:31.415Z,93299.28
2018-04-27T01:52:57.779Z,93295.70
2018-04-27T01:55:24.159Z,93299.54
2018-04-27T01:57:50.703Z,93302.64
2018-04-27T02:00:17.152Z,93305.88
2018-04-27T02:02:43.610Z,93306.85
2018-04-27T02:05:10.064Z,93317.27
2018-04-27T02:07:36.530Z,93315.66
2018-04-27T02:10:02.921Z,93317.69
2018-04-27T02:12:29.347Z,93325.56
2018-04-27T02:14:55.805Z,93327.30
2018-04-27T02:17:22.199Z,93320.53
2018-04-27T02:19:48.657Z,93315.27
2018-04-27T02:22:15.026Z,93319.23
2018-04-27T02:24:41.348Z,93315.78
2018-04-27T02:27:07.736Z,93308.23
2018-04-27T02:29:34.130Z,93312.55
2018-04-27T02:32:00.545Z,93321.59
2018-04-27T02:34:26.951Z,93323.38
2018-04-27T02:36:53.329Z,93322.03
2018-04-27T02:39:19.764Z,93320.53
2018-04-27T02:41:46.094Z,93319.91
2018-04-27T02:44:12.500Z,93331.56
2018-04-27T02:46:38.833Z,93334.92
2018-04-27T02:49:05.248Z,93329.95
2018-04-27T02:51:31.578Z,93331.09
2018-04-27T02:53:58.085Z,93334.90
2018-04-27T02:56:24.417Z,93336.05
2018-04-27T02:58:50.804Z,93338.78
2018-04-27T03:01:17.178Z,93343.89
2018-04-27T03:03:43.549Z,93339.87
2018-04-27T03:06:09.864Z,93343.67
2018-04-27T03:08:36.281Z,93342.35
2018-04-27T03:11:02.733Z,93346.16
2018-04-27T03:13:29.068Z,93346.02
2018-04-27T03:15:55.413Z,93342.75
2018-04-27T03:18:21.799Z,93345.08
2018-04-27T03:20:48.197Z,93350.27
2018-04-27T03:23:14.547Z,93349.08
2018-04-27T03:25:40.981Z,93356.30
2018-04-27T03:28:07.436Z,93365.59
2018-04-27T03:30:33.829Z,93371.55
2018-04-27T03:33:00.245Z,93368.42
2018-04-27T03:35:26.604Z,93361.29
2018-04-27T03:37:53.046Z,93364.53
2018-04-27T03:40:19.480Z,93363.59
2018-04-27T03:42:45.864Z,93363.17
2018-04-27T03:45:12.212Z,93361.34
2018-04-27T03:47:38.732Z,93367.25
2018-04-27T03:50:05.134Z,93367.73
2018-04-27T03:52:31.558Z,93380.09
2018-04-27T03:54:57.968Z,93406.55
2018-04-27T03:57:24.309Z,93413.44
2018-04-27T04:00:02.824Z,93412.45
2018-04-27T04:02:41.409Z,93411.05
2018-04-27T04:05:18.956Z,93409.59
2018-04-27T04:07:46.422Z,93402.73
2018-04-27T04:10:12.847Z,93408.65
2018-04-27T04:12:39.347Z,93413.68
2018-04-27T04:15:06.138Z,93415.19
2018-04-27T04:17:32.591Z,93423.05
2018-04-27T04:19:59.000Z,93423.80
2018-04-27T04:22:25.362Z,93427.22
2018-04-27T04:24:51.716Z,93442.66
2018-04-27T04:27:18.316Z,93449.75
2018-04-27T04:29:44.781Z,93459.30
2018-04-27T04:32:11.147Z,93465.91
2018-04-27T04:34:37.701Z,93463.91
2018-04-27T04:37:04.125Z,93464.59
2018-04-27T04:39:30.602Z,93476.20
2018-04-27T04:41:57.000Z,93473.48
2018-04-27T04:44:23.366Z,93469.65
2018-04-27T04:46:49.687Z,93475.63
2018-04-27T04:49:16.234Z,93469.52
2018-04-27T04:51:42.648Z,93471.55
2018-04-27T04:54:09.022Z,93469.66
2018-04-27T04:56:35.529Z,93471.58
2018-04-27T04:59:01.995Z,93470.17
2018-04-27T05:01:28.383Z,93468.43
2018-04-27T05:03:54.858Z,93458.47
2018-04-27T05:06:21.323Z,93450.54
2018-04-27T05:08:47.805Z,93444.68
2018-04-27T05:11:14.329Z,93439.73
2018-04-27T05:13:40.863Z,93438.02
2018-04-27T05:16:07.295Z,93447.67
2018-04-27T05:18:49.605Z,93458.02
2018-04-27T05:21:16.044Z,93479.03
2018-04-27T05:23:42.426Z,93475.57
2018-04-27T05:26:08.966Z,93471.36
2018-04-27T05:28:36.379Z,93464.69
2018-04-27T05:31:14.988Z,93468.75
2018-04-27T05:33:41.418Z,93469.24
2018-04-27T05:36:07.781Z,93463.66
2018-04-27T05:38:34.392Z,93459.22
2018-04-27T05:41:00.895Z,93463.25
2018-04-27T05:43:27.400Z,93467.58
2018-04-27T05:45:53.921Z,93474.45
2018-04-27T05:48:20.349Z,93471.91
2018-04-27T05:50:46.888Z,93484.45
2018-04-27T05:53:13.414Z,93482.63
2018-04-27T05:55:39.899Z,93490.80
2018-04-27T05:58:08.984Z,93485.95
2018-04-27T06:00:35.544Z,93494.56
2018-04-27T06:03:01.958Z,93495.06
2018-04-27T06:05:28.407Z,93502.66
2018-04-27T06:07:56.015Z,93512.27
2018-04-27T06:10:22.526Z,93510.19
2018-04-27T06:12:48.909Z,93515.05
2018-04-27T06:15:15.323Z,93518.08
2018-04-27T06:17:41.672Z,93526.27
2018-04-27T06:20:08.038Z,93518.94
2018-04-27T06:22:34.517Z,93527.16
2018-04-27T06:25:01.645Z,93533.05
2018-04-27T06:27:28.395Z,93531.09
2018-04-27T06:29:54.930Z,93525.01
2018-04-27T06:32:21.441Z,93537.44
2018-04-27T06:34:47.821Z,93540.06
2018-04-27T06:37:14.270Z,93541.48
2018-04-27T06:39:40.738Z,93545.78
2018-04-27T06:42:07.196Z,93548.40
2018-04-27T06:44:33.746Z,93550.11
2018-04-27T06:47:00.241Z,93546.63
2018-04-27T06:49:26.705Z,93552.81
2018-04-27T06:51:53.418Z,93556.87
2018-04-27T06:54:19.865Z,93556.48
2018-04-27T06:56:46.274Z,93562.27
2018-04-27T06:59:12.898Z,93564.99
2018-04-27T07:01:39.317Z,93559.20
2018-04-27T07:04:05.802Z,93557.80
2018-04-27T07:06:32.551Z,93561.56
2018-04-27T07:08:58.978Z,93570.30
2018-04-27T07:11:25.437Z,93566.13
2018-04-27T07:13:51.885Z,93559.17
2018-04-27T07:16:18.402Z,93558.95
2018-04-27T07:18:44.802Z,93558.66
2018-04-27T07:21:11.225Z,93559.52
2018-04-27T07:23:37.620Z,93555.86
2018-04-27T07:26:04.013Z,93556.97
2018-04-27T07:28:30.721Z,93560.46
2018-04-27T07:30:57.216Z,93553.84
2018-04-27T07:33:23.606Z,93556.34
2018-04-27T07:35:49.992Z,93562.28
2018-04-27T07:38:16.499Z,93562.63
2018-04-27T07:40:42.869Z,93555.49
2018-04-27T07:43:09.357Z,93561.97
2018-04-27T07:45:35.765Z,93559.31
2018-04-27T07:48:02.241Z,93561.05
2018-04-27T07:50:28.659Z,93550.61
2018-04-27T07:52:55.067Z,93551.60
2018-04-27T07:55:21.513Z,93556.98
2018-04-27T07:57:48.057Z,93555.71
2018-04-27T08:00:14.644Z,93561.62
2018-04-27T08:02:41.197Z,93553.73
2018-04-27T08:05:07.814Z,93559.08
2018-04-27T08:07:34.284Z,93557.22
2018-04-27T08:10:00.921Z,93560.94
2018-04-27T08:12:27.417Z,93568.47
2018-04-27T08:14:53.791Z,93564.59
2018-04-27T08:17:20.286Z,93564.64
2018-04-27T08:19:46.698Z,93563.72
2018-04-27T08:22:13.077Z,93561.94
2018-04-27T08:24:39.632Z,93566.27
2018-04-27T08:27:06.176Z,93569.83
2018-04-27T08:29:32.709Z,93567.75
2018-04-27T08:31:59.242Z,93567.39
2018-04-27T08:34:25.720Z,93570.40
2018-04-27T08:36:52.124Z,93565.28
2018-04-27T08:39:18.645Z,93563.00
2018-04-27T08:41:45.116Z,93564.37
2018-04-27T08:44:12.047Z,93561.64
2018-04-27T08:46:38.628Z,93555.94
2018-04-27T08:49:05.263Z,93550.55
2018-04-27T08:51:31.782Z,93545.99
2018-04-27T08:53:58.274Z,93548.46
2018-04-27T08:56:24.771Z,93543.02
2018-04-27T08:58:51.364Z,93548.91
2018-04-27T09:01:17.850Z,93544.31
2018-04-27T09:03:44.732Z,93542.70
2018-04-27T09:06:11.546Z,93540.72
2018-04-27T09:08:38.144Z,93545.37
2018-04-27T09:11:04.548Z,93545.92
2018-04-27T09:13:31.098Z,93547.61
2018-04-27T09:15:57.595Z,93545.47
2018-04-27T09:18:24.214Z,93543.15
2018-04-27T09:20:50.591Z,93540.13
2018-04-27T09:23:17.047Z,93542.09
2018-04-27T09:25:43.523Z,93538.89
2018-04-27T09:28:09.919Z,93535.46
2018-04-27T09:30:36.283Z,93537.25
2018-04-27T09:33:02.709Z,93534.25
2018-04-27T09:35:29.268Z,93534.33
2018-04-27T09:37:55.912Z,93534.86
2018-04-27T09:40:22.454Z,93530.83
2018-04-27T09:42:48.901Z,93532.80
2018-04-27T09:45:15.291Z,93526.69
2018-04-27T09:47:41.774Z,93526.45
2018-04-27T09:50:08.387Z,93521.23
2018-04-27T09:52:34.773Z,93515.67
2018-04-27T09:55:01.264Z,93518.92
2018-04-27T09:57:27.778Z,93514.78
2018-04-27T09:59:54.262Z,93513.30
2018-04-27T10:02:21.222Z,93508.43
2018-04-27T10:04:47.644Z,93509.75
2018-04-27T10:07:14.114Z,93508.92
2018-04-27T10:09:40.650Z,93508.73
2018-04-27T10:12:07.164Z,93506.30
2018-04-27T10:14:33.600Z,93508.38
2018-04-27T10:17:00.064Z,93505.33
2018-04-27T10:19:26.653Z,93508.25
2018-04-27T10:21:53.129Z,93503.64
2018-04-27T10:24:19.627Z,93500.52
2018-04-27T10:26:46.087Z,93502.58
2018-04-27T10:29:12.589Z,93493.06
2018-04-27T10:31:39.037Z,93497.66
2018-04-27T10:34:05.434Z,93498.34
2018-04-27T10:36:32.016Z,93490.44
2018-04-27T10:38:58.539Z,93497.61
2018-04-27T10:41:26.007Z,93490.78
2018-04-27T10:43:53.407Z,93494.67
2018-04-27T10:46:20.049Z,93486.38
2018-04-27T10:48:46.647Z,93478.30
2018-04-27T10:51:13.142Z,93481.94
2018-04-27T10:53:39.652Z,93481.56
2018-04-27T10:56:06.169Z,93478.50
2018-04-27T10:58:32.694Z,93485.09
2018-04-27T11:00:59.289Z,93479.94
2018-04-27T11:03:25.979Z,93476.02
2018-04-27T11:05:52.472Z,93482.44
2018-04-27T11:08:18.984Z,93475.16
2018-04-27T11:10:45.484Z,93474.98
2018-04-27T11:13:13.083Z,93473.46
2018-04-27T11:15:40.589Z,93476.64
2018-04-27T11:18:07.081Z,93470.58
2018-04-27T11:20:33.640Z,93472.41
2018-04-27T11:23:00.141Z,93471.78
2018-04-27T11:25:26.618Z,93474.25
2018-04-27T11:27:53.207Z,93473.25
2018-04-27T11:30:19.805Z,93471.23
2018-04-27T11:32:46.304Z,93469.37
2018-04-27T11:35:12.855Z,93468.02
2018-04-27T11:37:39.351Z,93459.51
2018-04-27T11:40:05.852Z,93453.97
2018-04-27T11:42:32.358Z,93465.24
2018-04-27T11:44:58.913Z,93460.08
2018-04-27T11:47:25.501Z,93460.19
2018-04-27T11:49:52.072Z,93460.77
2018-04-27T11:52:18.577Z,93459.54
2018-04-27T11:54:45.764Z,93460.52
2018-04-27T11:57:12.317Z,93458.23
2018-04-27T11:59:38.856Z,93455.53
2018-04-27T12:02:05.340Z,93459.34
2018-04-27T12:04:32.229Z,93453.08
2018-04-27T12:06:58.835Z,93441.80
2018-04-27T12:09:25.347Z,93439.08
2018-04-27T12:11:52.115Z,93442.89
2018-04-27T12:14:18.838Z,93438.52
2018-04-27T12:16:45.393Z,93438.84
2018-04-27T12:19:11.833Z,93434.97
2018-04-27T12:21:38.415Z,93423.52
2018-04-27T12:24:04.927Z,93429.42
2018-04-27T12:26:31.418Z,93428.81
2018-04-27T12:28:58.678Z,93425.38
2018-04-27T12:31:25.589Z,93426.20
2018-04-27T12:33:52.079Z,93424.44
2018-04-27T12:36:18.556Z,93422.80
2018-04-27T12:38:45.286Z,93413.12
2018-04-27T12:41:12.132Z,93405.19
2018-04-27T12:43:38.742Z,93417.41
2018-04-27T12:46:05.213Z,93414.73
2018-04-27T12:48:31.800Z,93411.97
2018-04-27T12:50:58.320Z,93409.56
2018-04-27T12:53:24.776Z,93405.16
2018-04-27T12:55:51.266Z,93398.83
2018-04-27T12:58:18.007Z,93395.49
2018-04-27T13:00:44.600Z,93386.78
2018-04-27T13:03:11.085Z,93389.05
2018-04-27T13:05:38.097Z,93385.13
2018-04-27T13:08:05.078Z,93387.61
2018-04-27T13:10:31.745Z,93382.58
2018-04-27T13:12:58.358Z,93378.55
2018-04-27T13:15:25.317Z,93382.15
2018-04-27T13:17:51.748Z,93376.72
2018-04-27T13:20:18.292Z,93379.34
2018-04-27T13:22:44.714Z,93379.38
2018-04-27T13:25:11.233Z,93376.52
2018-04-27T13:27:37.712Z,93368.90
2018-04-27T13:30:04.484Z,93374.66
2018-04-27T13:32:30.980Z,93366.64
2018-04-27T13:34:57.480Z,93372.92
2018-04-27T13:37:23.939Z,93367.83
2018-04-27T13:39:50.325Z,93361.53
2018-04-27T13:42:16.754Z,93371.69
2018-04-27T13:44:43.212Z,93367.81
2018-04-27T13:47:09.567Z,93371.22
2018-04-27T13:49:36.324Z,93368.70
2018-04-27T13:52:02.854Z,93367.71
2018-04-27T13:54:29.273Z,93365.78
2018-04-27T13:56:55.737Z,93361.06
2018-04-27T13:59:22.197Z,93362.14
2018-04-27T14:01:48.666Z,93366.16
2018-04-27T14:04:15.116Z,93372.64
2018-04-27T14:06:41.738Z,93369.80
2018-04-27T14:09:08.264Z,93369.56
2018-04-27T14:11:34.705Z,93375.39
2018-04-27T14:14:01.115Z,93374.31
2018-04-27T14:16:27.581Z,93376.89
2018-04-27T14:18:53.996Z,93381.88
2018-04-27T14:21:20.796Z,93378.30
2018-04-27T14:23:47.236Z,93376.86
2018-04-27T14:26:13.708Z,93380.19
2018-04-27T14:28:40.425Z,93380.98
2018-04-27T14:31:06.848Z,93388.67
2018-04-27T14:33:34.252Z,93387.72
2018-04-27T14:36:00.752Z,93396.86
2018-04-27T14:38:27.139Z,93397.89
2018-04-27T14:40:53.911Z,93399.87
2018-04-27T14:43:21.308Z,93397.80
2018-04-27T14:45:47.674Z,93399.53
2018-04-27T14:48:15.815Z,93399.75
2018-04-27T14:50:42.309Z,93402.31
2018-04-27T14:53:08.665Z,93399.55
2018-04-27T14:55:35.038Z,93401.98
2018-04-27T14:58:01.505Z,93397.67
2018-04-27T15:00:29.004Z,93409.34
2018-04-27T15:02:55.613Z,93413.23
2018-04-27T15:05:22.082Z,93414.32
2018-04-27T15:07:48.481Z,93412.36
2018-04-27T15:10:15.008Z,93408.58
2018-04-27T15:12:41.505Z,93399.30
2018-04-27T15:15:08.088Z,93408.56
2018-04-27T15:17:34.522Z,93413.00
2018-04-27T15:20:01.010Z,93410.11
2018-04-27T15:22:27.555Z,93409.53
2018-04-27T15:24:53.926Z,93412.70
2018-04-27T15:27:20.392Z,93410.05
2018-04-27T15:29:47.788Z,93411.31
2018-04-27T15:32:14.217Z,93416.52
2018-04-27T15:34:40.721Z,93418.89
2018-04-27T15:37:07.142Z,93416.80
2018-04-27T15:39:33.656Z,93417.83
2018-04-27T15:42:00.063Z,93423.70
2018-04-27T15:44:26.554Z,93418.87
2018-04-27T15:46:53.006Z,93419.48
2018-04-27T15:49:19.892Z,93422.87
2018-04-27T15:51:46.361Z,93420.22
2018-04-27T15:54:12.797Z,93419.05
2018-04-27T15:56:39.263Z,93417.84
2018-04-27T15:59:05.878Z,93418.27
2018-04-27T16:01:32.365Z,93422.30
2018-04-27T16:03:59.738Z,93418.20
2018-04-27T16:06:26.233Z,93422.75
2018-04-27T16:08:52.773Z,93417.12
2018-04-27T16:11:19.801Z,93421.44
2018-04-27T16:13:53.413Z,93425.95
2018-04-27T16:16:21.528Z,93426.11
2018-04-27T16:18:47.970Z,93427.39
2018-04-27T16:21:14.559Z,93432.80
2018-04-27T16:23:43.909Z,93433.66
2018-04-27T16:26:10.402Z,93441.69
2018-04-27T16:28:36.814Z,93455.49
2018-04-27T16:31:03.443Z,93459.45
2018-04-27T16:33:29.919Z,93457.05
2018-04-27T16:35:56.450Z,93465.56
2018-04-27T16:38:22.967Z,93466.93
2018-04-27T16:40:49.918Z,93463.31
2018-04-27T16:43:16.441Z,93468.77
2018-04-27T16:45:43.053Z,93462.97
2018-04-27T16:48:09.609Z,93468.30
2018-04-27T16:50:36.228Z,93461.37
2018-04-27T16:53:02.767Z,93466.53
2018-04-27T16:55:29.234Z,93459.97
2018-04-27T16:57:55.641Z,93462.66
2018-04-27T17:00:22.186Z,93461.30
2018-04-27T17:02:48.752Z,93467.09
2018-04-27T17:05:15.252Z,93467.75
2018-04-27T17:07:41.782Z,93464.65
2018-04-27T17:10:08.592Z,93471.05
2018-04-27T17:12:35.288Z,93478.61
2018-04-27T17:15:01.862Z,93490.67
2018-04-27T17:17:28.637Z,93496.71
2018-04-27T17:19:55.291Z,93501.36
2018-04-27T17:22:22.272Z,93503.38
2018-04-27T17:24:48.797Z,93499.82
2018-04-27T17:27:15.305Z,93506.66
2018-04-27T17:29:41.882Z,93504.59
2018-04-27T17:32:08.628Z,93509.16
2018-04-27T17:34:35.442Z,93509.66
2018-04-27T17:37:02.171Z,93518.76
2018-04-27T17:39:29.645Z,93519.79
2018-04-27T17:41:56.314Z,93524.68
2018-04-27T17:44:22.828Z,93523.37
2018-04-27T17:46:49.444Z,93521.78
2018-04-27T17:49:16.143Z,93521.72
2018-04-27T17:51:42.667Z,93528.86
2018-04-27T17:54:09.061Z,93530.11
2018-04-27T17:56:35.499Z,93529.99
2018-04-27T17:59:02.003Z,93535.42
2018-04-27T18:01:28.448Z,93538.27
2018-04-27T18:03:54.936Z,93546.09
2018-04-27T18:06:21.402Z,93545.07
2018-04-27T18:08:47.921Z,93554.46
2018-04-27T18:11:15.558Z,93551.65
2018-04-27T18:13:42.139Z,93562.60
2018-04-27T18:16:08.618Z,93563.06
2018-04-27T18:18:35.177Z,93561.59
2018-04-27T18:21:01.985Z,93563.09
2018-04-27T18:23:28.640Z,93568.45
2018-04-27T18:25:55.918Z,93571.21
2018-04-27T18:28:22.690Z,93574.94
2018-04-27T18:30:49.515Z,93579.02
2018-04-27T18:33:16.278Z,93581.98
2018-04-27T18:35:43.819Z,93583.11
2018-04-27T18:38:10.419Z,93580.41
2018-04-27T18:40:37.714Z,93586.98
2018-04-27T18:43:04.859Z,93589.68
2018-04-27T18:45:33.610Z,93601.66
2018-04-27T18:48:00.931Z,93597.65
2018-04-27T18:50:28.133Z,93604.28
2018-04-27T18:52:55.407Z,93601.59
2018-04-27T18:55:22.256Z,93607.39
2018-04-27T18:57:49.324Z,93607.27
2018-04-27T19:00:16.404Z,93613.03
2018-04-27T19:02:44.510Z,93615.66
2018-04-27T19:05:11.513Z,93618.55
2018-04-27T19:07:38.564Z,93622.99
2018-04-27T19:10:05.515Z,93619.56
2018-04-27T19:12:32.733Z,93627.43
2018-04-27T19:15:00.002Z,93622.88
2018-04-27T19:17:35.307Z,93626.11
2018-04-27T19:20:12.504Z,93627.89
2018-04-27T19:22:41.369Z,93627.48
2018-04-27T19:25:08.148Z,93628.95
2018-04-27T19:27:34.941Z,93626.33
2018-04-27T19:30:01.920Z,93629.59
2018-04-27T19:32:29.103Z,93627.34
2018-04-27T19:34:56.355Z,93626.27
2018-04-27T19:37:23.476Z,93627.09
2018-04-27T19:39:50.657Z,93630.90
2018-04-27T19:42:17.680Z,93630.64
2018-04-27T19:44:44.979Z,93628.39
2018-04-27T19:47:12.162Z,93632.89
2018-04-27T19:49:39.707Z,93628.64
2018-04-27T19:52:06.601Z,93639.94
2018-04-27T19:54:33.489Z,93639.90
2018-04-27T19:57:00.577Z,93636.13
2018-04-27T19:59:27.805Z,93643.14
2018-04-27T20:01:54.845Z,93634.84
2018-04-27T20:04:22.292Z,93637.66
2018-04-27T20:06:49.358Z,93637.89
2018-04-27T20:09:16.181Z,93641.12
2018-04-27T20:11:42.889Z,93636.91
2018-04-27T20:14:10.245Z,93636.13
2018-04-27T20:16:38.477Z,93640.32
2018-04-27T20:19:06.206Z,93633.19
2018-04-27T20:21:33.503Z,93637.20
2018-04-27T20:24:03.452Z,93632.21
2018-04-27T20:26:30.212Z,93638.28
2018-04-27T20:28:57.629Z,93635.74
2018-04-27T20:31:24.457Z,93637.75
2018-04-27T20:33:51.303Z,93640.38
2018-04-27T20:36:18.619Z,93640.73
2018-04-27T20:38:45.392Z,93641.09
2018-04-27T20:41:12.482Z,93639.63
2018-04-27T20:43:40.605Z,93644.45
2018-04-27T20:46:08.721Z,93641.14
2018-04-27T20:48:35.637Z,93639.56
2018-04-27T20:51:03.201Z,93644.27
2018-04-27T20:53:38.180Z,93648.45
2018-04-27T20:56:05.006Z,93641.66
2018-04-27T20:58:31.727Z,93646.45
2018-04-27T21:00:58.593Z,93652.58
2018-04-27T21:03:25.333Z,93654.48
2018-04-27T21:05:51.875Z,93660.39
2018-04-27T21:08:18.336Z,93660.69
2018-04-27T21:10:44.872Z,93662.41
2018-04-27T21:13:11.351Z,93664.75
2018-04-27T21:15:38.535Z,93661.27
2018-04-27T21:18:05.036Z,93659.41
2018-04-27T21:20:31.592Z,93662.32
2018-04-27T21:22:58.002Z,93657.19
2018-04-27T21:25:29.361Z,93659.87
2018-04-27T21:27:56.183Z,93660.83
2018-04-27T21:30:22.808Z,93661.52
2018-04-27T21:32:49.492Z,93660.62
2018-04-27T21:35:16.002Z,93662.34
2018-04-27T21:37:44.381Z,93661.86
2018-04-27T21:40:11.008Z,93661.09
2018-04-27T21:42:37.735Z,93665.03
2018-04-27T21:45:05.282Z,93668.29
2018-04-27T21:47:40.755Z,93665.38
2018-04-27T21:50:08.569Z,93665.09
2018-04-27T21:52:37.660Z,93661.50
2018-04-27T21:55:06.663Z,93664.16
2018-04-27T21:57:37.804Z,93662.22
2018-04-27T22:03:04.778Z,93660.92
2018-04-27T22:05:47.955Z,93670.20
2018-04-27T22:08:16.456Z,93665.70
2018-04-27T22:10:43.073Z,93666.63
2018-04-27T22:13:09.505Z,93665.50
2018-04-27T22:15:35.958Z,93669.28
2018-04-27T22:18:07.173Z,93669.33
2018-04-27T22:20:34.458Z,93672.38
2018-04-27T22:23:00.952Z,93667.16
2018-04-27T22:25:28.203Z,93672.07
2018-04-27T22:27:56.488Z,93679.83
2018-04-27T22:30:28.807Z,93681.31
2018-04-27T22:32:55.290Z,93676.94
2018-04-27T22:35:21.785Z,93677.05
2018-04-27T22:37:51.412Z,93677.73
2018-04-27T22:40:21.674Z,93676.70
2018-04-27T22:42:48.187Z,93667.70
2018-04-27T22:45:16.667Z,93671.30
2018-04-27T22:47:43.083Z,93663.61
2018-04-27T22:50:09.645Z,93663.84
2018-04-27T22:52:40.004Z,93655.70
2018-04-27T22:55:11.196Z,93662.12
2018-04-27T22:57:38.614Z,93659.66
2018-04-27T23:00:06.075Z,93669.08
2018-04-27T23:02:32.520Z,93666.57
2018-04-27T23:08:07.992Z,93679.71
2018-04-27T23:10:45.390Z,93685.70
2018-04-27T23:13:18.895Z,93684.69
2018-04-27T23:15:45.325Z,93680.74
2018-04-27T23:18:11.746Z,93687.20
2018-04-27T23:20:38.331Z,93684.91
2018-04-27T23:23:05.837Z,93691.02
2018-04-27T23:25:34.154Z,93688.76
2018-04-27T23:28:00.627Z,93686.00
2018-04-27T23:30:36.574Z,93686.74
2018-04-27T23:33:03.110Z,93693.03
2018-04-27T23:35:29.483Z,93697.05
2018-04-27T23:37:55.949Z,93701.09
2018-04-27T23:40:22.752Z,93705.86
2018-04-27T23:42:49.600Z,93710.25
2018-04-27T23:45:19.057Z,93702.73
2018-04-27T23:47:47.504Z,93700.91
2018-04-27T23:50:16.541Z,93695.53
2018-04-27T23:52:43.558Z,93695.85
2018-04-27T23:55:10.063Z,93688.88
2018-04-27T23:57:36.824Z,93689.11
